Lake Edgewood, Indiana
Current Conditions -  °F | °C
As of 7:15 AM on Sunday 23 Nov 2014 (Local Time) from K1II Reporting Station
Broken Clouds Broken Clouds  
Wind Chill: 45°   Ceiling: 9000
Heat Index: 45°   Visibility: 10mi
Dew Point: 37°   Wind: 3mph
Humidity: 76%   Direction: 110°ESE
Pressure: 29.94"   Gusts: NA
Location:  39.4615°N, 86.4578°W
Report Text: K1II 231215Z AUTO 11003KT 10SM SCT025 BKN090 07/03 A2994 RMK AO2
Loading
Personal Weather Stations






























Interactive Weather Map New forecast layout! Learn more

10-Day Weather Forecast

Advertisements
Track Severe Weather on mobile